sensor_id;sensor_type;location;lat;lon;timestamp;pressure;altitude;pressure_sealevel;temperature;humidity
50057;BME280;36875;49.468;11.200;2023-10-09T00:00:05;98528.34;;;21.44;50.16
50057;BME280;36875;49.468;11.200;2023-10-09T00:02:51;98527.53;;;21.44;50.55
50057;BME280;36875;49.468;11.200;2023-10-09T00:05:16;98530.56;;;21.42;50.69
50057;BME280;36875;49.468;11.200;2023-10-09T00:07:54;98526.19;;;21.41;50.54
50057;BME280;36875;49.468;11.200;2023-10-09T00:10:21;98526.53;;;21.40;50.67
50057;BME280;36875;49.468;11.200;2023-10-09T00:12:47;98523.78;;;21.40;50.44
50057;BME280;36875;49.468;11.200;2023-10-09T00:15:14;98517.78;;;21.37;50.86
50057;BME280;36875;49.468;11.200;2023-10-09T00:17:43;98521.34;;;21.38;50.68
50057;BME280;36875;49.468;11.200;2023-10-09T00:20:12;98518.91;;;21.36;50.71
50057;BME280;36875;49.468;11.200;2023-10-09T00:22:57;98518.41;;;21.34;50.63
50057;BME280;36875;49.468;11.200;2023-10-09T00:25:23;98515.66;;;21.34;50.71
50057;BME280;36875;49.468;11.200;2023-10-09T00:27:55;98512.13;;;21.34;50.88
50057;BME280;36875;49.468;11.200;2023-10-09T00:30:20;98515.16;;;21.32;50.67
50057;BME280;36875;49.468;11.200;2023-10-09T00:32:47;98517.91;;;21.32;50.71
50057;BME280;36875;49.468;11.200;2023-10-09T00:35:39;98500.66;;;21.32;50.84
50057;BME280;36875;49.468;11.200;2023-10-09T00:38:20;98496.63;;;21.29;50.64
50057;BME280;36875;49.468;11.200;2023-10-09T00:40:46;98494.97;;;21.28;50.75
50057;BME280;36875;49.468;11.200;2023-10-09T00:43:12;98489.50;;;21.28;50.79
50057;BME280;36875;49.468;11.200;2023-10-09T00:45:38;98477.25;;;21.26;50.82
50057;BME280;36875;49.468;11.200;2023-10-09T00:48:05;98475.31;;;21.26;50.82
50057;BME280;36875;49.468;11.200;2023-10-09T00:50:31;98467.94;;;21.27;50.88
50057;BME280;36875;49.468;11.200;2023-10-09T00:53:01;98463.88;;;21.24;50.88
50057;BME280;36875;49.468;11.200;2023-10-09T00:55:31;98457.59;;;21.24;50.98
50057;BME280;36875;49.468;11.200;2023-10-09T00:58:11;98455.16;;;21.22;51.07
50057;BME280;36875;49.468;11.200;2023-10-09T01:00:40;98448.06;;;21.21;50.72
50057;BME280;36875;49.468;11.200;2023-10-09T01:03:10;98447.25;;;21.21;50.80
50057;BME280;36875;49.468;11.200;2023-10-09T01:05:45;98444.81;;;21.19;50.97
50057;BME280;36875;49.468;11.200;2023-10-09T01:08:29;98444.81;;;21.19;50.83
50057;BME280;36875;49.468;11.200;2023-10-09T01:11:10;98441.56;;;21.17;51.04
50057;BME280;36875;49.468;11.200;2023-10-09T01:13:36;98449.78;;;21.17;50.83
50057;BME280;36875;49.468;11.200;2023-10-09T01:16:18;98443.50;;;21.16;51.00
50057;BME280;36875;49.468;11.200;2023-10-09T01:18:48;98436.38;;;21.15;50.88
50057;BME280;36875;49.468;11.200;2023-10-09T01:21:17;98433.16;;;21.13;50.82
50057;BME280;36875;49.468;11.200;2023-10-09T01:23:45;98438.31;;;21.15;50.82
50057;BME280;36875;49.468;11.200;2023-10-09T01:26:29;98438.97;;;21.12;50.97
50057;BME280;36875;49.468;11.200;2023-10-09T01:29:00;98429.91;;;21.11;51.17
50057;BME280;36875;49.468;11.200;2023-10-09T01:31:25;98424.75;;;21.10;51.00
50057;BME280;36875;49.468;11.200;2023-10-09T01:34:08;98427.81;;;21.08;51.07
50057;BME280;36875;49.468;11.200;2023-10-09T01:36:35;98418.78;;;21.08;50.96
50057;BME280;36875;49.468;11.200;2023-10-09T01:39:05;98416.03;;;21.08;51.07
50057;BME280;36875;49.468;11.200;2023-10-09T01:41:46;98412.50;;;21.07;51.13
50057;BME280;36875;49.468;11.200;2023-10-09T01:44:12;98408.47;;;21.05;51.09
50057;BME280;36875;49.468;11.200;2023-10-09T01:46:41;98406.53;;;21.05;51.15
50057;BME280;36875;49.468;11.200;2023-10-09T01:49:07;98395.06;;;21.03;51.00
50057;BME280;36875;49.468;11.200;2023-10-09T01:51:41;98397.00;;;21.03;51.23
50057;BME280;36875;49.468;11.200;2023-10-09T01:54:08;98391.84;;;21.01;50.86
50057;BME280;36875;49.468;11.200;2023-10-09T01:56:42;98384.44;;;21.02;51.09
50057;BME280;36875;49.468;11.200;2023-10-09T01:59:11;98384.72;;;21.00;51.10
50057;BME280;36875;49.468;11.200;2023-10-09T02:01:37;98385.88;;;20.99;51.04
50057;BME280;36875;49.468;11.200;2023-10-09T02:04:06;98396.81;;;20.99;51.29
50057;BME280;36875;49.468;11.200;2023-10-09T02:06:39;98385.03;;;20.98;51.21
50057;BME280;36875;49.468;11.200;2023-10-09T02:09:05;98395.47;;;20.96;51.29
50057;BME280;36875;49.468;11.200;2023-10-09T02:11:33;98392.75;;;20.96;51.24
50057;BME280;36875;49.468;11.200;2023-10-09T02:14:03;98392.75;;;20.96;51.14
50057;BME280;36875;49.468;11.200;2023-10-09T02:16:30;98391.13;;;20.95;51.26
50057;BME280;36875;49.468;11.200;2023-10-09T02:19:07;98383.22;;;20.94;51.28
50057;BME280;36875;49.468;11.200;2023-10-09T02:21:33;98382.72;;;20.92;51.21
50057;BME280;36875;49.468;11.200;2023-10-09T02:24:05;98376.44;;;20.91;51.26
50057;BME280;36875;49.468;11.200;2023-10-09T02:26:52;98383.03;;;20.90;51.32
50057;BME280;36875;49.468;11.200;2023-10-09T02:29:18;98383.03;;;20.90;51.32
50057;BME280;36875;49.468;11.200;2023-10-09T02:31:44;98369.66;;;20.89;51.55
50057;BME280;36875;49.468;11.200;2023-10-09T02:34:17;98373.19;;;20.89;51.35
50057;BME280;36875;49.468;11.200;2023-10-09T02:36:46;98375.13;;;20.89;51.22
50057;BME280;36875;49.468;11.200;2023-10-09T02:39:22;98363.38;;;20.88;51.30
50057;BME280;36875;49.468;11.200;2023-10-09T02:41:56;98367.22;;;20.87;51.31
50057;BME280;36875;49.468;11.200;2023-10-09T02:44:40;98365.28;;;20.88;51.44
50057;BME280;36875;49.468;11.200;2023-10-09T02:47:11;98366.41;;;20.87;51.37
50057;BME280;36875;49.468;11.200;2023-10-09T02:49:43;98358.50;;;20.85;51.38
50057;BME280;36875;49.468;11.200;2023-10-09T02:52:08;98362.34;;;20.84;51.29
50057;BME280;36875;49.468;11.200;2023-10-09T02:54:35;98363.19;;;20.85;51.45
50057;BME280;36875;49.468;11.200;2023-10-09T02:57:07;98366.22;;;20.83;51.37
50057;BME280;36875;49.468;11.200;2023-10-09T02:59:33;98364.59;;;20.82;51.28
50057;BME280;36875;49.468;11.200;2023-10-09T03:01:59;98361.84;;;20.82;51.57
50057;BME280;36875;49.468;11.200;2023-10-09T03:04:25;98368.44;;;20.81;51.31
50057;BME280;36875;49.468;11.200;2023-10-09T03:06:56;98366.03;;;20.79;51.29
50057;BME280;36875;49.468;11.200;2023-10-09T03:09:23;98367.13;;;20.78;51.37
50057;BME280;36875;49.468;11.200;2023-10-09T03:11:55;98366.31;;;20.78;51.35
50057;BME280;36875;49.468;11.200;2023-10-09T03:14:29;98366.31;;;20.78;51.58
50057;BME280;36875;49.468;11.200;2023-10-09T03:16:56;98370.19;;;20.77;51.61
50057;BME280;36875;49.468;11.200;2023-10-09T03:19:21;98363.88;;;20.76;51.40
50057;BME280;36875;49.468;11.200;2023-10-09T03:21:47;98355.19;;;20.74;51.45
50057;BME280;36875;49.468;11.200;2023-10-09T03:24:13;98345.03;;;20.75;51.58
50057;BME280;36875;49.468;11.200;2023-10-09T03:26:38;98347.28;;;20.73;51.54
50057;BME280;36875;49.468;11.200;2023-10-09T03:29:04;98336.34;;;20.73;51.55
50057;BME280;36875;49.468;11.200;2023-10-09T03:31:36;98342.94;;;20.72;51.40
50057;BME280;36875;49.468;11.200;2023-10-09T03:34:02;98344.84;;;20.71;51.46
50057;BME280;36875;49.468;11.200;2023-10-09T03:36:28;98353.03;;;20.71;51.45
50057;BME280;36875;49.468;11.200;2023-10-09T03:38:54;98346.78;;;20.71;51.44
50057;BME280;36875;49.468;11.200;2023-10-09T03:41:21;98345.16;;;20.70;51.52
50057;BME280;36875;49.468;11.200;2023-10-09T03:43:46;98338.88;;;20.69;51.65
50057;BME280;36875;49.468;11.200;2023-10-09T03:46:12;98341.09;;;20.67;51.36
50057;BME280;36875;49.468;11.200;2023-10-09T03:48:52;98329.34;;;20.67;51.56
50057;BME280;36875;49.468;11.200;2023-10-09T03:51:21;98330.16;;;20.67;51.75
50057;BME280;36875;49.468;11.200;2023-10-09T03:53:47;98328.56;;;20.66;51.60
50057;BME280;36875;49.468;11.200;2023-10-09T03:56:13;98326.94;;;20.65;51.66
50057;BME280;36875;49.468;11.200;2023-10-09T03:58:41;98323.09;;;20.66;51.54
50057;BME280;36875;49.468;11.200;2023-10-09T04:01:10;98320.97;;;20.63;51.59
50057;BME280;36875;49.468;11.200;2023-10-09T04:03:42;98329.97;;;20.64;51.56
50057;BME280;36875;49.468;11.200;2023-10-09T04:06:09;98320.97;;;20.63;51.55
50057;BME280;36875;49.468;11.200;2023-10-09T04:08:38;98318.53;;;20.62;51.68
50057;BME280;36875;49.468;11.200;2023-10-09T04:11:10;98320.97;;;20.63;51.65
50057;BME280;36875;49.468;11.200;2023-10-09T04:13:42;98317.72;;;20.61;51.45
50057;BME280;36875;49.468;11.200;2023-10-09T04:16:07;98321.25;;;20.62;51.67
50057;BME280;36875;49.468;11.200;2023-10-09T04:18:51;98313.31;;;20.60;51.55
50057;BME280;36875;49.468;11.200;2023-10-09T04:21:18;98316.34;;;20.58;51.63
50057;BME280;36875;49.468;11.200;2023-10-09T04:23:45;98322.66;;;20.59;51.78
50057;BME280;36875;49.468;11.200;2023-10-09T04:26:34;98330.34;;;20.57;51.70
50057;BME280;36875;49.468;11.200;2023-10-09T04:29:00;98324.06;;;20.56;51.64
50057;BME280;36875;49.468;11.200;2023-10-09T04:31:27;98324.88;;;20.57;51.66
50057;BME280;36875;49.468;11.200;2023-10-09T04:33:57;98314.25;;;20.55;51.78
50057;BME280;36875;49.468;11.200;2023-10-09T04:36:44;98317.00;;;20.55;51.88
50057;BME280;36875;49.468;11.200;2023-10-09T04:39:15;98307.97;;;20.55;51.81
50057;BME280;36875;49.468;11.200;2023-10-09T04:41:41;98304.72;;;20.53;51.81
50057;BME280;36875;49.468;11.200;2023-10-09T04:44:07;98294.91;;;20.52;51.82
50057;BME280;36875;49.468;11.200;2023-10-09T04:46:44;98298.75;;;20.51;52.01
50057;BME280;36875;49.468;11.200;2023-10-09T04:49:10;98299.56;;;20.51;51.81
50057;BME280;36875;49.468;11.200;2023-10-09T04:51:57;98295.22;;;20.50;51.72
50057;BME280;36875;49.468;11.200;2023-10-09T04:54:43;98291.97;;;20.48;51.73
50057;BME280;36875;49.468;11.200;2023-10-09T04:57:28;98302.91;;;20.48;51.92
50057;BME280;36875;49.468;11.200;2023-10-09T04:59:54;98294.72;;;20.48;51.85
50057;BME280;36875;49.468;11.200;2023-10-09T05:02:23;98300.19;;;20.48;51.94
50057;BME280;36875;49.468;11.200;2023-10-09T05:04:49;98297.75;;;20.47;51.99
50057;BME280;36875;49.468;11.200;2023-10-09T05:07:35;98298.53;;;20.47;51.86
50057;BME280;36875;49.468;11.200;2023-10-09T05:10:27;98294.22;;;20.46;51.73
50057;BME280;36875;49.468;11.200;2023-10-09T05:12:52;98299.69;;;20.46;51.87
50057;BME280;36875;49.468;11.200;2023-10-09T05:15:24;98307.88;;;20.46;51.83
50057;BME280;36875;49.468;11.200;2023-10-09T05:17:54;98305.75;;;20.43;51.83
50057;BME280;36875;49.468;11.200;2023-10-09T05:20:22;98310.09;;;20.44;51.72
50057;BME280;36875;49.468;11.200;2023-10-09T05:22:54;98310.09;;;20.44;51.69
50057;BME280;36875;49.468;11.200;2023-10-09T05:25:24;98315.56;;;20.44;51.82
50057;BME280;36875;49.468;11.200;2023-10-09T05:28:08;98317.97;;;20.46;52.05
50057;BME280;36875;49.468;11.200;2023-10-09T05:30:52;98320.22;;;20.44;51.95
50057;BME280;36875;49.468;11.200;2023-10-09T05:33:33;98329.25;;;20.44;52.10
50057;BME280;36875;49.468;11.200;2023-10-09T05:36:01;98322.44;;;20.41;51.76
50057;BME280;36875;49.468;11.200;2023-10-09T05:38:46;98332.06;;;20.39;51.58
50057;BME280;36875;49.468;11.200;2023-10-09T05:41:23;98325.47;;;20.40;51.47
50057;BME280;36875;49.468;11.200;2023-10-09T05:44:07;98317.59;;;20.38;51.34
50057;BME280;36875;49.468;11.200;2023-10-09T05:46:51;98309.72;;;20.37;51.34
50057;BME280;36875;49.468;11.200;2023-10-09T05:49:35;98315.16;;;20.37;51.60
50057;BME280;36875;49.468;11.200;2023-10-09T05:52:21;98314.34;;;20.36;51.34
50057;BME280;36875;49.468;11.200;2023-10-09T05:54:59;98310.50;;;20.37;51.37
50057;BME280;36875;49.468;11.200;2023-10-09T05:57:54;98312.13;;;20.38;51.66
50057;BME280;36875;49.468;11.200;2023-10-09T06:00:52;98313.53;;;20.36;51.62
50057;BME280;36875;49.468;11.200;2023-10-09T06:03:36;98320.34;;;20.38;51.66
50057;BME280;36875;49.468;11.200;2023-10-09T06:06:10;98326.09;;;20.37;51.55
50057;BME280;36875;49.468;11.200;2023-10-09T06:08:43;98317.41;;;20.35;51.40
50057;BME280;36875;49.468;11.200;2023-10-09T06:11:11;98315.47;;;20.35;51.66
50057;BME280;36875;49.468;11.200;2023-10-09T06:13:57;98327.19;;;20.36;51.37
50057;BME280;36875;49.468;11.200;2023-10-09T06:16:35;98327.00;;;20.32;51.45
50057;BME280;36875;49.468;11.200;2023-10-09T06:19:04;98328.94;;;20.32;51.15
50057;BME280;36875;49.468;11.200;2023-10-09T06:21:41;98330.03;;;20.31;50.82
50057;BME280;36875;49.468;11.200;2023-10-09T06:24:07;98334.19;;;20.28;50.72
50057;BME280;36875;49.468;11.200;2023-10-09T06:26:46;98330.94;;;20.26;50.33
50057;BME280;36875;49.468;11.200;2023-10-09T06:29:24;98331.25;;;20.25;50.15
50057;BME280;36875;49.468;11.200;2023-10-09T06:32:02;98323.06;;;20.25;49.81
50057;BME280;36875;49.468;11.200;2023-10-09T06:34:43;98312.13;;;20.25;49.87
50057;BME280;36875;49.468;11.200;2023-10-09T06:37:10;98323.84;;;20.25;50.44
50057;BME280;36875;49.468;11.200;2023-10-09T06:40:03;98324.34;;;20.27;50.86
50057;BME280;36875;49.468;11.200;2023-10-09T06:42:55;98330.03;;;20.31;50.77
50057;BME280;36875;49.468;11.200;2023-10-09T06:45:21;98331.66;;;20.32;50.68
50057;BME280;36875;49.468;11.200;2023-10-09T06:47:47;98320.72;;;20.32;50.57
50057;BME280;36875;49.468;11.200;2023-10-09T06:50:35;98334.81;;;20.39;50.64
50057;BME280;36875;49.468;11.200;2023-10-09T06:53:19;98339.47;;;20.38;50.54
50057;BME280;36875;49.468;11.200;2023-10-09T06:55:45;98336.63;;;20.44;50.65
50057;BME280;36875;49.468;11.200;2023-10-09T06:58:15;98336.22;;;20.50;50.30
50057;BME280;36875;49.468;11.200;2023-10-09T07:00:48;98337.53;;;20.53;50.63
50057;BME280;36875;49.468;11.200;2023-10-09T07:03:40;98337.44;;;20.58;50.44
50057;BME280;36875;49.468;11.200;2023-10-09T07:06:18;98342.72;;;20.68;50.57
50057;BME280;36875;49.468;11.200;2023-10-09T07:08:49;98341.59;;;20.83;50.23
50057;BME280;36875;49.468;11.200;2023-10-09T07:11:36;98355.44;;;21.01;49.89
50057;BME280;36875;49.468;11.200;2023-10-09T07:14:06;98357.75;;;21.21;49.67
50057;BME280;36875;49.468;11.200;2023-10-09T07:16:32;98352.41;;;21.38;49.23
50057;BME280;36875;49.468;11.200;2023-10-09T07:19:03;98357.44;;;21.59;49.00
50057;BME280;36875;49.468;11.200;2023-10-09T07:21:49;98359.66;;;21.80;48.74
50057;BME280;36875;49.468;11.200;2023-10-09T07:26:49;98357.97;;;22.24;48.11
50057;BME280;36875;49.468;11.200;2023-10-09T07:29:19;98355.22;;;22.46;47.69
50057;BME280;36875;49.468;11.200;2023-10-09T07:31:49;98359.28;;;22.58;47.42
50057;BME280;36875;49.468;11.200;2023-10-09T07:34:23;98363.84;;;22.71;47.01
50057;BME280;36875;49.468;11.200;2023-10-09T07:37:18;98369.88;;;22.90;46.84
50057;BME280;36875;49.468;11.200;2023-10-09T07:39:44;98373.13;;;23.01;46.55
50057;BME280;36875;49.468;11.200;2023-10-09T07:42:15;98376.09;;;23.05;46.42
50057;BME280;36875;49.468;11.200;2023-10-09T07:44:45;98380.31;;;23.20;46.20
50057;BME280;36875;49.468;11.200;2023-10-09T07:47:18;98385.44;;;23.21;46.45
50057;BME280;36875;49.468;11.200;2023-10-09T07:50:11;98387.41;;;23.56;46.00
50057;BME280;36875;49.468;11.200;2023-10-09T07:52:36;98388.06;;;23.61;45.47
50057;BME280;36875;49.468;11.200;2023-10-09T07:55:08;98392.13;;;23.99;44.69
50057;BME280;36875;49.468;11.200;2023-10-09T07:57:51;98382.56;;;23.70;45.42
50057;BME280;36875;49.468;11.200;2023-10-09T08:00:18;98389.69;;;23.80;45.24
50057;BME280;36875;49.468;11.200;2023-10-09T08:03:14;98381.28;;;23.67;45.63
50057;BME280;36875;49.468;11.200;2023-10-09T08:05:49;98388.22;;;23.65;45.61
50057;BME280;36875;49.468;11.200;2023-10-09T08:08:14;98393.88;;;23.68;45.46
50057;BME280;36875;49.468;11.200;2023-10-09T08:10:58;98391.94;;;23.78;45.69
50057;BME280;36875;49.468;11.200;2023-10-09T08:13:42;98390.34;;;23.77;45.28
50057;BME280;36875;49.468;11.200;2023-10-09T08:16:27;98393.44;;;23.84;45.23
50057;BME280;36875;49.468;11.200;2023-10-09T08:19:02;98395.50;;;23.87;45.50
50057;BME280;36875;49.468;11.200;2023-10-09T08:21:46;98400.03;;;23.83;45.65
50057;BME280;36875;49.468;11.200;2023-10-09T08:24:31;98403.44;;;23.80;45.75
50057;BME280;36875;49.468;11.200;2023-10-09T08:27:14;98396.81;;;23.81;45.61
50057;BME280;36875;49.468;11.200;2023-10-09T08:29:58;98395.50;;;23.87;45.28
50057;BME280;36875;49.468;11.200;2023-10-09T08:32:40;98399.72;;;23.84;45.38
50057;BME280;36875;49.468;11.200;2023-10-09T08:35:08;98400.38;;;23.90;45.16
50057;BME280;36875;49.468;11.200;2023-10-09T08:37:54;98417.81;;;23.77;45.76
50057;BME280;36875;49.468;11.200;2023-10-09T08:40:19;98412.81;;;23.79;45.67
50057;BME280;36875;49.468;11.200;2023-10-09T08:42:48;98406.47;;;23.78;45.62
50057;BME280;36875;49.468;11.200;2023-10-09T08:45:22;98409.88;;;23.75;45.98
50057;BME280;36875;49.468;11.200;2023-10-09T08:47:54;98413.13;;;23.68;45.90
50057;BME280;36875;49.468;11.200;2023-10-09T08:50:20;98405.03;;;23.63;46.08
50057;BME280;36875;49.468;11.200;2023-10-09T08:52:46;98416.66;;;23.69;46.09
50057;BME280;36875;49.468;11.200;2023-10-09T08:55:12;98427.00;;;23.63;45.89
50057;BME280;36875;49.468;11.200;2023-10-09T08:57:38;98416.19;;;23.58;46.10
50057;BME280;36875;49.468;11.200;2023-10-09T09:00:06;98415.53;;;23.61;46.17
50057;BME280;36875;49.468;11.200;2023-10-09T09:05:17;98405.03;;;23.63;46.31
50057;BME280;36875;49.468;11.200;2023-10-09T09:07:44;98404.88;;;23.68;46.11
50057;BME280;36875;49.468;11.200;2023-10-09T09:10:09;98400.34;;;23.73;46.26
50057;BME280;36875;49.468;11.200;2023-10-09T09:12:46;98402.94;;;23.86;45.86
50057;BME280;36875;49.468;11.200;2023-10-09T09:15:13;98401.66;;;23.93;45.55
50057;BME280;36875;49.468;11.200;2023-10-09T09:17:45;98400.53;;;24.02;45.88
50057;BME280;36875;49.468;11.200;2023-10-09T09:20:23;98418.94;;;24.11;45.41
50057;BME280;36875;49.468;11.200;2023-10-09T09:22:53;98407.75;;;24.16;45.21
50057;BME280;36875;49.468;11.200;2023-10-09T09:25:21;98416.31;;;24.23;45.41
50057;BME280;36875;49.468;11.200;2023-10-09T09:27:49;98420.34;;;24.25;45.03
50057;BME280;36875;49.468;11.200;2023-10-09T09:30:25;98423.56;;;24.28;45.45
50057;BME280;36875;49.468;11.200;2023-10-09T09:32:53;98428.59;;;24.34;44.86
50057;BME280;36875;49.468;11.200;2023-10-09T09:35:39;98436.19;;;24.37;45.20
50057;BME280;36875;49.468;11.200;2023-10-09T09:38:06;98432.28;;;24.38;44.97
50057;BME280;36875;49.468;11.200;2023-10-09T09:40:33;98414.03;;;24.34;45.11
50057;BME280;36875;49.468;11.200;2023-10-09T09:43:06;98425.66;;;24.39;45.31
50057;BME280;36875;49.468;11.200;2023-10-09T09:45:46;98420.63;;;24.41;45.13
50057;BME280;36875;49.468;11.200;2023-10-09T09:48:15;98429.53;;;24.38;44.64
50057;BME280;36875;49.468;11.200;2023-10-09T09:50:43;98414.97;;;24.47;44.70
50057;BME280;36875;49.468;11.200;2023-10-09T09:53:10;98429.22;;;24.40;44.98
50057;BME280;36875;49.468;11.200;2023-10-09T09:55:38;98437.31;;;24.45;45.19
50057;BME280;36875;49.468;11.200;2023-10-09T09:58:13;98431.97;;;24.40;45.13
50057;BME280;36875;49.468;11.200;2023-10-09T10:00:45;98425.00;;;24.42;45.07
50057;BME280;36875;49.468;11.200;2023-10-09T10:03:19;98410.09;;;24.43;44.91
50057;BME280;36875;49.468;11.200;2023-10-09T10:05:50;98420.81;;;24.36;45.26
50057;BME280;36875;49.468;11.200;2023-10-09T10:08:16;98429.72;;;24.33;45.57
50057;BME280;36875;49.468;11.200;2023-10-09T10:10:45;98443.47;;;24.33;45.46
50057;BME280;36875;49.468;11.200;2023-10-09T10:13:17;98438.31;;;24.32;45.53
50057;BME280;36875;49.468;11.200;2023-10-09T10:16:00;98435.06;;;24.30;45.78
50057;BME280;36875;49.468;11.200;2023-10-09T10:18:52;98435.88;;;24.30;45.73
50057;BME280;36875;49.468;11.200;2023-10-09T10:21:22;98436.50;;;24.36;45.87
50057;BME280;36875;49.468;11.200;2023-10-09T10:23:57;98434.25;;;24.29;45.73
50057;BME280;36875;49.468;11.200;2023-10-09T10:26:31;98428.59;;;24.25;45.93
50057;BME280;36875;49.468;11.200;2023-10-09T10:29:14;98428.91;;;24.24;45.94
50057;BME280;36875;49.468;11.200;2023-10-09T10:31:52;98424.91;;;24.21;46.01
50057;BME280;36875;49.468;11.200;2023-10-09T10:34:19;98419.25;;;24.18;45.85
50057;BME280;36875;49.468;11.200;2023-10-09T10:36:50;98425.53;;;24.18;46.06
50057;BME280;36875;49.468;11.200;2023-10-09T10:39:24;98419.88;;;24.15;46.19
50057;BME280;36875;49.468;11.200;2023-10-09T10:42:08;98416.00;;;24.16;46.30
50057;BME280;36875;49.468;11.200;2023-10-09T10:44:35;98417.81;;;24.12;46.28
50057;BME280;36875;49.468;11.200;2023-10-09T10:47:05;98420.06;;;24.10;46.25
50057;BME280;36875;49.468;11.200;2023-10-09T10:49:31;98419.25;;;24.09;46.30
50057;BME280;36875;49.468;11.200;2023-10-09T10:52:03;98415.69;;;24.09;46.36
50057;BME280;36875;49.468;11.200;2023-10-09T10:54:42;98399.38;;;24.03;46.14
50057;BME280;36875;49.468;11.200;2023-10-09T10:57:15;98395.34;;;24.01;46.16
50057;BME280;36875;49.468;11.200;2023-10-09T11:00:01;98385.13;;;24.01;46.59
50057;BME280;36875;49.468;11.200;2023-10-09T11:02:58;98370.44;;;23.97;46.30
50057;BME280;36875;49.468;11.200;2023-10-09T11:05:40;98363.31;;;23.96;46.26
50057;BME280;36875;49.468;11.200;2023-10-09T11:08:10;98368.00;;;23.96;46.03
50057;BME280;36875;49.468;11.200;2023-10-09T11:10:35;98366.75;;;23.93;46.43
50057;BME280;36875;49.468;11.200;2023-10-09T11:13:01;98359.63;;;23.92;46.10
50057;BME280;36875;49.468;11.200;2023-10-09T11:15:37;98352.78;;;24.07;45.74
50057;BME280;36875;49.468;11.200;2023-10-09T11:18:13;98352.31;;;23.96;46.34
50057;BME280;36875;49.468;11.200;2023-10-09T11:20:45;98351.22;;;23.89;46.23
50057;BME280;36875;49.468;11.200;2023-10-09T11:23:30;98351.38;;;23.92;46.67
50057;BME280;36875;49.468;11.200;2023-10-09T11:25:59;98363.00;;;23.89;46.38
50057;BME280;36875;49.468;11.200;2023-10-09T11:28:43;98361.25;;;23.93;46.09
50057;BME280;36875;49.468;11.200;2023-10-09T11:31:14;98372.09;;;23.90;46.42
50057;BME280;36875;49.468;11.200;2023-10-09T11:33:44;98375.47;;;23.86;46.60
50057;BME280;36875;49.468;11.200;2023-10-09T11:36:09;98386.63;;;23.81;46.66
50057;BME280;36875;49.468;11.200;2023-10-09T11:38:38;98380.13;;;23.77;46.94
50057;BME280;36875;49.468;11.200;2023-10-09T11:41:12;98409.22;;;23.78;46.58
50057;BME280;36875;49.468;11.200;2023-10-09T11:43:48;98427.84;;;23.81;46.83
50057;BME280;36875;49.468;11.200;2023-10-09T11:46:17;98404.91;;;23.86;46.49
50057;BME280;36875;49.468;11.200;2023-10-09T11:49:04;98369.97;;;23.95;46.82
50057;BME280;36875;49.468;11.200;2023-10-09T11:51:51;98352.31;;;24.05;46.31
50057;BME280;36875;49.468;11.200;2023-10-09T11:54:36;98353.72;;;24.20;45.91
50057;BME280;36875;49.468;11.200;2023-10-09T11:57:02;98354.50;;;24.29;45.88
50057;BME280;36875;49.468;11.200;2023-10-09T11:59:28;98379.22;;;24.38;46.22
50057;BME280;36875;49.468;11.200;2023-10-09T12:01:53;98395.56;;;24.43;45.77
50057;BME280;36875;49.468;11.200;2023-10-09T12:04:26;98433.88;;;24.48;45.87
50057;BME280;36875;49.468;11.200;2023-10-09T12:06:55;98432.13;;;24.52;46.18
50057;BME280;36875;49.468;11.200;2023-10-09T12:09:31;98433.88;;;24.57;45.78
50057;BME280;36875;49.468;11.200;2023-10-09T12:12:01;98467.84;;;24.61;45.64
50057;BME280;36875;49.468;11.200;2023-10-09T12:14:27;98457.66;;;24.61;45.26
50057;BME280;36875;49.468;11.200;2023-10-09T12:16:58;98473.03;;;24.62;45.19
50057;BME280;36875;49.468;11.200;2023-10-09T12:19:24;98487.63;;;24.63;45.67
50057;BME280;36875;49.468;11.200;2023-10-09T12:21:49;98476.63;;;24.63;45.75
50057;BME280;36875;49.468;11.200;2023-10-09T12:24:17;98468.00;;;24.65;45.68
50057;BME280;36875;49.468;11.200;2023-10-09T12:26:44;98435.13;;;24.68;45.26
50057;BME280;36875;49.468;11.200;2023-10-09T12:29:12;98406.00;;;24.67;45.40
50057;BME280;36875;49.468;11.200;2023-10-09T12:31:38;98367.00;;;24.65;45.48
50057;BME280;36875;49.468;11.200;2023-10-09T12:34:04;98354.06;;;24.66;45.79
50057;BME280;36875;49.468;11.200;2023-10-09T12:36:30;98310.81;;;24.66;45.59
50057;BME280;36875;49.468;11.200;2023-10-09T12:39:02;98277.78;;;24.66;45.38
50057;BME280;36875;49.468;11.200;2023-10-09T12:41:28;98272.75;;;24.68;45.16
50057;BME280;36875;49.468;11.200;2023-10-09T12:43:58;98274.72;;;24.68;45.00
50057;BME280;36875;49.468;11.200;2023-10-09T12:46:26;98268.75;;;24.66;45.13
50057;BME280;36875;49.468;11.200;2023-10-09T12:48:51;98269.88;;;24.65;45.39
50057;BME280;36875;49.468;11.200;2023-10-09T12:51:20;98270.22;;;24.63;45.25
50057;BME280;36875;49.468;11.200;2023-10-09T12:53:46;98261.13;;;24.62;45.74
50057;BME280;36875;49.468;11.200;2023-10-09T12:56:14;98263.44;;;24.60;45.82
50057;BME280;36875;49.468;11.200;2023-10-09T12:58:40;98249.53;;;24.57;45.48
50057;BME280;36875;49.468;11.200;2023-10-09T13:01:17;98263.28;;;24.57;45.80
50057;BME280;36875;49.468;11.200;2023-10-09T13:03:45;98252.59;;;24.55;45.94
50057;BME280;36875;49.468;11.200;2023-10-09T13:06:14;98239.03;;;24.50;45.70
50057;BME280;36875;49.468;11.200;2023-10-09T13:08:41;98239.69;;;24.47;45.99
50057;BME280;36875;49.468;11.200;2023-10-09T13:11:08;98240.97;;;24.50;45.62
50057;BME280;36875;49.468;11.200;2023-10-09T13:13:38;98235.69;;;24.44;46.31
50057;BME280;36875;49.468;11.200;2023-10-09T13:16:09;98226.44;;;24.40;45.77
50057;BME280;36875;49.468;11.200;2023-10-09T13:18:47;98227.94;;;24.38;46.37
50057;BME280;36875;49.468;11.200;2023-10-09T13:21:15;98225.50;;;24.36;45.75
50057;BME280;36875;49.468;11.200;2023-10-09T13:23:41;98221.50;;;24.34;46.18